createdAt,value
2019-04-22T00:05:14.288Z,78.27
2019-04-22T00:10:43.708Z,79.45
2019-04-22T00:15:36.768Z,79.99
2019-04-22T00:20:52.693Z,78.73
2019-04-22T00:26:01.973Z,81.17
2019-04-22T00:31:11.834Z,82.17
2019-04-22T00:36:16.613Z,79.91
2019-04-22T00:41:28.685Z,79.91
2019-04-22T00:46:32.432Z,80.65
2019-04-22T00:51:48.738Z,78.99
2019-04-22T00:56:47.934Z,79.16
2019-04-22T01:01:53.999Z,79.16
2019-04-22T01:07:07.681Z,76.37
2019-04-22T01:12:16.633Z,76.80
2019-04-22T01:17:12.137Z,76.80
2019-04-22T01:22:23.489Z,75.14
2019-04-22T01:27:27.663Z,74.08
2019-04-22T01:32:26.306Z,71.69
2019-04-22T01:37:45.833Z,70.09
2019-04-22T01:43:03.824Z,70.75
2019-04-22T01:48:05.427Z,71.50
2019-04-22T01:53:13.429Z,71.93
2019-04-22T01:58:21.067Z,77.15
2019-04-22T02:03:36.089Z,77.14
2019-04-22T02:08:44.626Z,77.14
2019-04-22T02:13:49.368Z,77.39
2019-04-22T02:18:56.074Z,75.25
2019-04-22T02:24:20.082Z,75.91
2019-04-22T02:29:06.441Z,73.68
2019-04-22T02:35:27.168Z,73.59
2019-04-22T02:39:24.313Z,72.62
2019-04-22T02:44:35.553Z,72.68
2019-04-22T02:54:56.814Z,73.51
2019-04-22T03:00:09.695Z,73.99
2019-04-22T03:05:09.086Z,74.74
2019-04-22T03:10:18.875Z,75.24
2019-04-22T03:15:20.256Z,76.01
2019-04-22T03:20:33.867Z,76.38
2019-04-22T03:31:40.559Z,78.39
2019-04-22T03:46:50.942Z,80.05
2019-04-22T03:52:00.260Z,80.99
2019-04-22T04:07:22.489Z,84.06
2019-04-22T04:17:29.327Z,84.78
2019-04-22T04:32:55.360Z,85.98
2019-04-22T04:37:55.166Z,88.17
2019-04-22T04:43:00.951Z,89.93
2019-04-22T04:48:14.461Z,88.36
2019-04-22T04:53:22.910Z,88.33
2019-04-22T04:58:47.455Z,88.92
2019-04-22T05:03:49.377Z,89.93
2019-04-22T05:09:03.739Z,87.77
2019-04-22T05:13:57.669Z,87.41
2019-04-22T05:24:09.300Z,86.23
2019-04-22T05:29:12.819Z,85.00
2019-04-22T05:34:14.412Z,83.43
2019-04-22T05:39:24.590Z,82.69
2019-04-22T05:44:39.575Z,82.69
2019-04-22T05:49:35.369Z,81.19
2019-04-22T05:54:49.602Z,80.14
2019-04-22T06:00:04.655Z,80.21
2019-04-22T06:05:03.724Z,78.37
2019-04-22T06:10:09.933Z,78.12
2019-04-22T06:15:18.435Z,77.48
2019-04-22T06:20:28.586Z,76.47
2019-04-22T06:25:52.510Z,76.23
2019-04-22T06:30:41.489Z,75.47
2019-04-22T06:35:54.585Z,74.22
2019-04-22T06:41:04.493Z,71.99
2019-04-22T06:46:09.896Z,71.34
2019-04-22T06:51:15.270Z,70.64
2019-04-22T06:56:15.801Z,70.04
2019-04-22T07:01:27.592Z,69.90
2019-04-22T07:11:41.745Z,67.62
2019-04-22T07:16:54.525Z,64.63
2019-04-22T07:21:57.172Z,63.49
2019-04-22T07:27:10.271Z,61.53
2019-04-22T07:32:15.361Z,60.85
2019-04-22T07:37:32.968Z,58.35
2019-04-22T07:42:36.862Z,53.83
2019-04-22T07:52:44.922Z,55.10
2019-04-22T07:57:51.953Z,55.37
2019-04-22T08:03:07.975Z,53.80
2019-04-22T08:08:17.414Z,55.58
2019-04-22T08:13:19.581Z,54.19
2019-04-22T08:23:39.454Z,53.19
2019-04-22T08:28:45.984Z,51.03
2019-04-22T08:33:47.160Z,50.49
2019-04-22T08:39:04.492Z,50.10
2019-04-22T08:44:13.398Z,49.23
2019-04-22T08:49:14.835Z,48.22
2019-04-22T08:54:24.611Z,49.28
2019-04-22T08:59:28.156Z,48.81
2019-04-22T09:04:39.126Z,47.27
2019-04-22T09:09:48.582Z,47.37
2019-04-22T09:14:49.350Z,45.91
2019-04-22T09:20:00.693Z,46.04
2019-04-22T09:25:09.902Z,45.65
2019-04-22T09:30:18.971Z,44.94
2019-04-22T09:35:24.897Z,43.98
2019-04-22T09:40:35.838Z,44.45
2019-04-22T09:45:42.724Z,43.65
2019-04-22T09:50:54.291Z,43.56
2019-04-22T09:56:03.959Z,43.32
2019-04-22T10:06:30.902Z,43.62
2019-04-22T10:11:32.657Z,43.91
2019-04-22T10:22:03.000Z,44.49
2019-04-22T10:26:52.914Z,44.70
2019-04-22T10:32:05.635Z,44.63
2019-04-22T10:36:44.084Z,44.45
2019-04-22T10:41:50.636Z,44.61
2019-04-22T10:46:57.950Z,43.70
2019-04-22T10:52:04.603Z,43.51
2019-04-22T10:57:10.831Z,43.38
2019-04-22T11:02:17.338Z,43.95
2019-04-22T11:07:31.079Z,43.64
2019-04-22T11:12:33.893Z,43.71
2019-04-22T11:17:38.031Z,43.89
2019-04-22T11:22:44.672Z,43.96
2019-04-22T11:27:51.354Z,42.86
2019-04-22T11:32:58.398Z,42.58
2019-04-22T11:38:04.730Z,42.18
2019-04-22T11:43:10.571Z,42.60
2019-04-22T11:48:17.636Z,42.05
2019-04-22T11:53:24.842Z,41.16
2019-04-22T11:58:32.970Z,40.71
2019-04-22T12:03:40.011Z,41.02
2019-04-22T12:08:45.956Z,41.31
2019-04-22T12:13:51.940Z,41.37
2019-04-22T12:18:58.756Z,41.81
2019-04-22T12:24:05.524Z,41.48
2019-04-22T12:29:13.076Z,41.60
2019-04-22T12:34:19.630Z,42.02
2019-04-22T12:39:27.460Z,41.41
2019-04-22T12:44:33.463Z,40.81
2019-04-22T12:49:42.099Z,38.83
2019-04-22T12:54:46.963Z,38.74
2019-04-22T12:59:53.333Z,38.02
2019-04-22T13:05:00.587Z,37.97
2019-04-22T13:10:13.638Z,37.75
2019-04-22T13:15:20.181Z,38.67
2019-04-22T13:20:26.276Z,38.96
2019-04-22T13:25:32.556Z,38.68
2019-04-22T13:30:38.713Z,38.68
2019-04-22T13:35:45.816Z,37.19
2019-04-22T13:41:10.838Z,36.28
2019-04-22T13:45:59.083Z,36.77
2019-04-22T13:51:40.980Z,37.66
2019-04-22T13:56:35.391Z,37.33
2019-04-22T14:01:24.824Z,36.84
2019-04-22T14:06:31.124Z,37.04
2019-04-22T14:11:46.157Z,36.78
2019-04-22T14:16:45.128Z,37.27
2019-04-22T14:21:51.594Z,36.94
2019-04-22T14:27:13.821Z,37.80
2019-04-22T14:32:13.250Z,37.48
2019-04-22T14:37:14.236Z,37.75
2019-04-22T14:42:39.482Z,37.76
2019-04-22T14:47:58.197Z,37.83
2019-04-22T14:52:58.215Z,37.20
2019-04-22T14:57:43.823Z,37.60
2019-04-22T15:02:49.917Z,37.45
2019-04-22T15:07:57.071Z,37.67
2019-04-22T15:13:03.097Z,37.94
2019-04-22T15:18:19.889Z,37.54
2019-04-22T15:23:26.767Z,37.61
2019-04-22T15:28:33.381Z,37.34
2019-04-22T15:33:41.970Z,37.45
2019-04-22T15:38:49.147Z,37.89
2019-04-22T15:43:55.144Z,37.55
2019-04-22T15:49:02.159Z,37.45
2019-04-22T15:54:09.709Z,37.22
2019-04-22T15:59:35.075Z,36.93
2019-04-22T16:04:23.062Z,36.71
2019-04-22T16:09:29.128Z,35.76
2019-04-22T16:14:41.410Z,35.53
2019-04-22T16:19:43.374Z,34.79
2019-04-22T16:24:54.152Z,34.75
2019-04-22T16:30:01.341Z,33.87
2019-04-22T16:35:08.818Z,33.06
2019-04-22T16:40:14.810Z,32.58
2019-04-22T16:45:21.807Z,32.61
2019-04-22T16:50:29.197Z,33.68
2019-04-22T16:55:35.166Z,35.50
2019-04-22T17:00:42.759Z,38.16
2019-04-22T17:05:51.681Z,40.26
2019-04-22T17:10:57.760Z,41.45
2019-04-22T17:16:04.879Z,42.70
2019-04-22T17:21:12.414Z,43.78
2019-04-22T17:26:18.870Z,44.12
2019-04-22T17:31:24.896Z,44.80
2019-04-22T17:36:31.964Z,45.46
2019-04-22T17:41:55.734Z,45.87
2019-04-22T17:47:10.709Z,47.19
2019-04-22T17:52:24.676Z,47.82
2019-04-22T17:57:49.220Z,47.99
2019-04-22T18:02:32.250Z,49.30
2019-04-22T18:07:49.330Z,49.79
2019-04-22T18:13:01.731Z,50.35
2019-04-22T18:18:06.506Z,52.17
2019-04-22T18:22:56.987Z,51.52
2019-04-22T18:28:25.639Z,53.83
2019-04-22T18:33:27.409Z,54.54
2019-04-22T18:38:39.691Z,55.62
2019-04-22T18:43:42.559Z,55.87
2019-04-22T18:48:46.514Z,56.81
2019-04-22T18:54:00.417Z,57.64
2019-04-22T18:59:00.356Z,58.38
2019-04-22T19:04:05.844Z,59.43
2019-04-22T19:09:38.679Z,60.65
2019-04-22T19:14:45.434Z,61.19
2019-04-22T19:19:49.852Z,62.48
2019-04-22T19:24:51.783Z,61.88
2019-04-22T19:30:07.385Z,64.78
2019-04-22T19:35:04.892Z,64.74
2019-04-22T19:40:25.843Z,65.22
2019-04-22T19:45:19.973Z,64.96
2019-04-22T19:50:40.860Z,66.59
2019-04-22T19:55:40.930Z,67.66
2019-04-22T20:00:54.957Z,67.96
2019-04-22T20:06:11.693Z,69.00
2019-04-22T20:11:22.657Z,68.78
2019-04-22T20:16:27.430Z,69.26
2019-04-22T20:21:40.576Z,71.04
2019-04-22T20:26:50.118Z,73.53
2019-04-22T20:31:53.093Z,73.16
2019-04-22T20:37:06.497Z,73.20
2019-04-22T20:42:17.797Z,74.08
2019-04-22T20:47:14.968Z,74.87
2019-04-22T20:52:36.287Z,74.17
2019-04-22T20:57:35.264Z,75.17
2019-04-22T21:02:32.357Z,75.03
2019-04-22T21:07:38.597Z,76.39
2019-04-22T21:12:48.187Z,75.99
2019-04-22T21:18:02.601Z,75.93
2019-04-22T21:23:11.064Z,74.56
2019-04-22T21:28:23.014Z,75.40
2019-04-22T21:33:18.508Z,75.36
2019-04-22T21:38:34.221Z,75.45
2019-04-22T21:43:42.106Z,75.10
2019-04-22T21:48:46.453Z,75.82
2019-04-22T21:54:06.873Z,75.69
2019-04-22T21:59:07.773Z,76.42
2019-04-22T22:04:17.343Z,76.43
2019-04-22T22:09:25.492Z,77.35
2019-04-22T22:14:31.663Z,77.33
2019-04-22T22:19:37.963Z,77.56
2019-04-22T22:24:49.879Z,78.39
2019-04-22T22:30:15.179Z,77.90
2019-04-22T22:35:06.834Z,78.95
2019-04-22T22:40:02.781Z,79.79
2019-04-22T22:45:10.610Z,78.83
2019-04-22T22:50:28.349Z,79.39
2019-04-22T22:55:35.826Z,79.52
2019-04-22T23:00:40.752Z,79.43
2019-04-22T23:05:57.426Z,79.45
2019-04-22T23:16:00.466Z,78.53
2019-04-22T23:20:59.638Z,79.27
2019-04-22T23:26:40.733Z,79.83
2019-04-22T23:31:36.839Z,80.16
2019-04-22T23:37:07.338Z,79.84
2019-04-22T23:42:19.065Z,79.79
2019-04-22T23:47:24.649Z,80.11
2019-04-22T23:52:35.937Z,79.78
2019-04-22T23:57:55.351Z,79.82
